sensor_id;sensor_type;location;lat;lon;timestamp;temperature;humidity
1786;DHT22;890;48.158;11.540;2024-02-16T00:00:15;10.20;74.90
1786;DHT22;890;48.158;11.540;2024-02-16T00:02:44;10.00;74.70
1786;DHT22;890;48.158;11.540;2024-02-16T00:05:11;9.90;75.70
1786;DHT22;890;48.158;11.540;2024-02-16T00:07:38;10.00;74.60
1786;DHT22;890;48.158;11.540;2024-02-16T00:10:04;9.80;75.70
1786;DHT22;890;48.158;11.540;2024-02-16T00:12:31;9.80;75.90
1786;DHT22;890;48.158;11.540;2024-02-16T00:14:58;9.80;76.10
1786;DHT22;890;48.158;11.540;2024-02-16T00:17:24;9.80;76.20
1786;DHT22;890;48.158;11.540;2024-02-16T00:19:52;9.80;76.30
1786;DHT22;890;48.158;11.540;2024-02-16T00:22:18;9.80;76.20
1786;DHT22;890;48.158;11.540;2024-02-16T00:24:44;9.90;76.20
1786;DHT22;890;48.158;11.540;2024-02-16T00:27:10;9.90;76.10
1786;DHT22;890;48.158;11.540;2024-02-16T00:29:35;9.80;76.10
1786;DHT22;890;48.158;11.540;2024-02-16T00:32:04;9.80;76.10
1786;DHT22;890;48.158;11.540;2024-02-16T00:34:31;9.70;76.20
1786;DHT22;890;48.158;11.540;2024-02-16T00:36:58;9.70;76.30
1786;DHT22;890;48.158;11.540;2024-02-16T00:39:24;9.80;76.50
1786;DHT22;890;48.158;11.540;2024-02-16T00:41:50;9.70;76.50
1786;DHT22;890;48.158;11.540;2024-02-16T00:44:16;9.60;76.40
1786;DHT22;890;48.158;11.540;2024-02-16T00:46:43;9.60;76.50
1786;DHT22;890;48.158;11.540;2024-02-16T00:49:09;9.60;76.50
1786;DHT22;890;48.158;11.540;2024-02-16T00:51:36;9.60;76.70
1786;DHT22;890;48.158;11.540;2024-02-16T00:54:02;9.60;76.60
1786;DHT22;890;48.158;11.540;2024-02-16T00:56:29;9.60;76.80
1786;DHT22;890;48.158;11.540;2024-02-16T00:58:54;9.70;77.00
1786;DHT22;890;48.158;11.540;2024-02-16T01:01:20;9.50;76.90
1786;DHT22;890;48.158;11.540;2024-02-16T01:03:48;9.50;77.00
1786;DHT22;890;48.158;11.540;2024-02-16T01:06:14;9.50;77.10
1786;DHT22;890;48.158;11.540;2024-02-16T01:08:40;9.50;77.20
1786;DHT22;890;48.158;11.540;2024-02-16T01:11:06;9.40;77.20
1786;DHT22;890;48.158;11.540;2024-02-16T01:13:33;9.40;77.30
1786;DHT22;890;48.158;11.540;2024-02-16T01:15:58;9.50;77.50
1786;DHT22;890;48.158;11.540;2024-02-16T01:18:25;9.60;77.70
1786;DHT22;890;48.158;11.540;2024-02-16T01:20:51;9.50;77.60
1786;DHT22;890;48.158;11.540;2024-02-16T01:23:17;9.60;77.70
1786;DHT22;890;48.158;11.540;2024-02-16T01:25:43;9.60;78.40
1786;DHT22;890;48.158;11.540;2024-02-16T01:28:08;9.60;77.70
1786;DHT22;890;48.158;11.540;2024-02-16T01:30:34;9.60;77.60
1786;DHT22;890;48.158;11.540;2024-02-16T01:32:59;9.70;77.60
1786;DHT22;890;48.158;11.540;2024-02-16T01:35:25;9.70;77.70
1786;DHT22;890;48.158;11.540;2024-02-16T01:37:51;9.70;77.50
1786;DHT22;890;48.158;11.540;2024-02-16T01:40:16;9.70;77.50
1786;DHT22;890;48.158;11.540;2024-02-16T01:42:43;9.70;77.70
1786;DHT22;890;48.158;11.540;2024-02-16T01:45:10;9.80;77.90
1786;DHT22;890;48.158;11.540;2024-02-16T01:47:38;9.70;77.90
1786;DHT22;890;48.158;11.540;2024-02-16T01:50:04;9.80;78.10
1786;DHT22;890;48.158;11.540;2024-02-16T01:52:31;9.70;78.00
1786;DHT22;890;48.158;11.540;2024-02-16T01:54:59;9.70;78.10
1786;DHT22;890;48.158;11.540;2024-02-16T01:57:26;9.70;78.10
1786;DHT22;890;48.158;11.540;2024-02-16T01:59:52;9.70;78.10
1786;DHT22;890;48.158;11.540;2024-02-16T02:02:19;9.70;78.20
1786;DHT22;890;48.158;11.540;2024-02-16T02:04:46;9.70;78.40
1786;DHT22;890;48.158;11.540;2024-02-16T02:07:16;9.80;78.20
1786;DHT22;890;48.158;11.540;2024-02-16T02:09:44;9.70;78.10
1786;DHT22;890;48.158;11.540;2024-02-16T02:12:10;9.80;78.30
1786;DHT22;890;48.158;11.540;2024-02-16T02:14:36;9.70;78.10
1786;DHT22;890;48.158;11.540;2024-02-16T02:17:02;9.80;78.20
1786;DHT22;890;48.158;11.540;2024-02-16T02:19:29;9.90;78.30
1786;DHT22;890;48.158;11.540;2024-02-16T02:21:55;9.80;78.20
1786;DHT22;890;48.158;11.540;2024-02-16T02:24:21;9.90;78.40
1786;DHT22;890;48.158;11.540;2024-02-16T02:26:47;9.90;78.20
1786;DHT22;890;48.158;11.540;2024-02-16T02:29:13;9.90;78.10
1786;DHT22;890;48.158;11.540;2024-02-16T02:31:38;9.90;78.30
1786;DHT22;890;48.158;11.540;2024-02-16T02:34:04;9.90;78.30
1786;DHT22;890;48.158;11.540;2024-02-16T02:36:31;10.00;77.40
1786;DHT22;890;48.158;11.540;2024-02-16T02:38:58;10.00;77.30
1786;DHT22;890;48.158;11.540;2024-02-16T02:41:23;9.90;78.30
1786;DHT22;890;48.158;11.540;2024-02-16T02:43:50;10.10;77.40
1786;DHT22;890;48.158;11.540;2024-02-16T02:46:16;9.90;78.30
1786;DHT22;890;48.158;11.540;2024-02-16T02:48:45;9.90;78.20
1786;DHT22;890;48.158;11.540;2024-02-16T02:51:11;9.90;78.30
1786;DHT22;890;48.158;11.540;2024-02-16T02:53:37;9.90;78.40
1786;DHT22;890;48.158;11.540;2024-02-16T02:56:03;9.90;78.50
1786;DHT22;890;48.158;11.540;2024-02-16T02:58:28;9.90;78.50
1786;DHT22;890;48.158;11.540;2024-02-16T03:00:55;9.80;78.60
1786;DHT22;890;48.158;11.540;2024-02-16T03:03:21;9.90;78.60
1786;DHT22;890;48.158;11.540;2024-02-16T03:05:47;9.90;78.70
1786;DHT22;890;48.158;11.540;2024-02-16T03:08:12;9.80;78.70
1786;DHT22;890;48.158;11.540;2024-02-16T03:10:38;9.80;78.80
1786;DHT22;890;48.158;11.540;2024-02-16T03:13:04;9.70;78.60
1786;DHT22;890;48.158;11.540;2024-02-16T03:15:32;9.70;78.70
1786;DHT22;890;48.158;11.540;2024-02-16T03:17:59;9.70;78.60
1786;DHT22;890;48.158;11.540;2024-02-16T03:20:24;9.70;78.60
1786;DHT22;890;48.158;11.540;2024-02-16T03:22:50;9.80;78.70
1786;DHT22;890;48.158;11.540;2024-02-16T03:25:16;9.70;78.80
1786;DHT22;890;48.158;11.540;2024-02-16T03:27:42;9.70;79.00
1786;DHT22;890;48.158;11.540;2024-02-16T03:30:08;9.60;78.90
1786;DHT22;890;48.158;11.540;2024-02-16T03:32:36;9.60;78.90
1786;DHT22;890;48.158;11.540;2024-02-16T03:35:01;9.60;79.00
1786;DHT22;890;48.158;11.540;2024-02-16T03:37:28;9.60;79.00
1786;DHT22;890;48.158;11.540;2024-02-16T03:39:53;9.60;78.80
1786;DHT22;890;48.158;11.540;2024-02-16T03:42:19;9.60;78.60
1786;DHT22;890;48.158;11.540;2024-02-16T03:44:45;9.60;78.60
1786;DHT22;890;48.158;11.540;2024-02-16T03:47:11;9.60;78.60
1786;DHT22;890;48.158;11.540;2024-02-16T03:49:37;9.60;78.40
1786;DHT22;890;48.158;11.540;2024-02-16T03:52:03;9.60;78.50
1786;DHT22;890;48.158;11.540;2024-02-16T03:54:28;9.60;78.60
1786;DHT22;890;48.158;11.540;2024-02-16T03:56:55;9.60;78.50
1786;DHT22;890;48.158;11.540;2024-02-16T03:59:20;9.70;78.60
1786;DHT22;890;48.158;11.540;2024-02-16T04:01:46;9.60;78.60
1786;DHT22;890;48.158;11.540;2024-02-16T04:04:12;9.70;78.60
1786;DHT22;890;48.158;11.540;2024-02-16T04:06:38;9.70;78.50
1786;DHT22;890;48.158;11.540;2024-02-16T04:09:05;9.70;78.30
1786;DHT22;890;48.158;11.540;2024-02-16T04:11:34;9.70;78.20
1786;DHT22;890;48.158;11.540;2024-02-16T04:14:00;9.70;78.10
1786;DHT22;890;48.158;11.540;2024-02-16T04:16:26;9.80;78.20
1786;DHT22;890;48.158;11.540;2024-02-16T04:18:52;9.70;78.00
1786;DHT22;890;48.158;11.540;2024-02-16T04:21:18;9.70;78.00
1786;DHT22;890;48.158;11.540;2024-02-16T04:23:44;9.70;78.10
1786;DHT22;890;48.158;11.540;2024-02-16T04:26:10;9.70;78.20
1786;DHT22;890;48.158;11.540;2024-02-16T04:28:35;9.70;78.30
1786;DHT22;890;48.158;11.540;2024-02-16T04:31:01;9.80;78.50
1786;DHT22;890;48.158;11.540;2024-02-16T04:33:27;9.80;78.50
1786;DHT22;890;48.158;11.540;2024-02-16T04:35:53;9.90;78.50
1786;DHT22;890;48.158;11.540;2024-02-16T04:38:18;9.80;78.40
1786;DHT22;890;48.158;11.540;2024-02-16T04:40:45;9.80;78.30
1786;DHT22;890;48.158;11.540;2024-02-16T04:43:11;9.90;78.50
1786;DHT22;890;48.158;11.540;2024-02-16T04:45:38;9.90;78.50
1786;DHT22;890;48.158;11.540;2024-02-16T04:48:07;10.00;77.30
1786;DHT22;890;48.158;11.540;2024-02-16T04:50:33;9.90;78.20
1786;DHT22;890;48.158;11.540;2024-02-16T04:52:59;10.00;77.00
1786;DHT22;890;48.158;11.540;2024-02-16T04:55:27;10.00;76.90
1786;DHT22;890;48.158;11.540;2024-02-16T04:57:54;10.00;76.70
1786;DHT22;890;48.158;11.540;2024-02-16T05:00:20;9.90;77.90
1786;DHT22;890;48.158;11.540;2024-02-16T05:02:46;10.00;76.90
1786;DHT22;890;48.158;11.540;2024-02-16T05:05:11;9.90;78.10
1786;DHT22;890;48.158;11.540;2024-02-16T05:07:37;10.00;77.20
1786;DHT22;890;48.158;11.540;2024-02-16T05:10:03;10.60;77.90
1786;DHT22;890;48.158;11.540;2024-02-16T05:12:29;9.90;79.00
1786;DHT22;890;48.158;11.540;2024-02-16T05:14:54;9.90;78.20
1786;DHT22;890;48.158;11.540;2024-02-16T05:17:20;9.90;78.20
1786;DHT22;890;48.158;11.540;2024-02-16T05:19:48;9.90;78.20
1786;DHT22;890;48.158;11.540;2024-02-16T05:22:13;10.00;77.20
1786;DHT22;890;48.158;11.540;2024-02-16T05:24:39;10.00;76.80
1786;DHT22;890;48.158;11.540;2024-02-16T05:27:05;10.00;76.70
1786;DHT22;890;48.158;11.540;2024-02-16T05:29:31;10.00;76.50
1786;DHT22;890;48.158;11.540;2024-02-16T05:31:57;10.10;76.60
1786;DHT22;890;48.158;11.540;2024-02-16T05:34:22;10.00;76.30
1786;DHT22;890;48.158;11.540;2024-02-16T05:36:49;10.00;76.20
1786;DHT22;890;48.158;11.540;2024-02-16T05:39:15;10.10;76.20
1786;DHT22;890;48.158;11.540;2024-02-16T05:41:52;10.10;76.40
1786;DHT22;890;48.158;11.540;2024-02-16T05:44:18;10.10;76.40
1786;DHT22;890;48.158;11.540;2024-02-16T05:46:45;10.10;76.40
1786;DHT22;890;48.158;11.540;2024-02-16T05:49:12;10.10;76.30
1786;DHT22;890;48.158;11.540;2024-02-16T05:51:37;10.10;76.10
1786;DHT22;890;48.158;11.540;2024-02-16T05:54:04;10.10;76.00
1786;DHT22;890;48.158;11.540;2024-02-16T05:56:30;10.10;76.00
1786;DHT22;890;48.158;11.540;2024-02-16T05:59:02;10.20;76.10
1786;DHT22;890;48.158;11.540;2024-02-16T06:01:29;10.20;76.10
1786;DHT22;890;48.158;11.540;2024-02-16T06:03:55;10.20;76.10
1786;DHT22;890;48.158;11.540;2024-02-16T06:06:20;10.20;76.10
1786;DHT22;890;48.158;11.540;2024-02-16T06:08:46;10.30;76.20
1786;DHT22;890;48.158;11.540;2024-02-16T06:11:12;10.30;76.20
1786;DHT22;890;48.158;11.540;2024-02-16T06:13:37;10.30;76.30
1786;DHT22;890;48.158;11.540;2024-02-16T06:16:06;10.40;76.40
1786;DHT22;890;48.158;11.540;2024-02-16T06:18:35;10.30;76.30
1786;DHT22;890;48.158;11.540;2024-02-16T06:21:01;10.40;76.40
1786;DHT22;890;48.158;11.540;2024-02-16T06:23:27;10.40;76.30
1786;DHT22;890;48.158;11.540;2024-02-16T06:25:53;10.40;76.30
1786;DHT22;890;48.158;11.540;2024-02-16T06:28:18;10.40;76.30
1786;DHT22;890;48.158;11.540;2024-02-16T06:30:44;10.40;77.20
1786;DHT22;890;48.158;11.540;2024-02-16T06:33:10;10.30;76.50
1786;DHT22;890;48.158;11.540;2024-02-16T06:35:35;10.30;76.40
1786;DHT22;890;48.158;11.540;2024-02-16T06:38:01;10.30;76.30
1786;DHT22;890;48.158;11.540;2024-02-16T06:40:26;10.20;76.20
1786;DHT22;890;48.158;11.540;2024-02-16T06:42:53;10.20;76.30
1786;DHT22;890;48.158;11.540;2024-02-16T06:45:18;10.20;76.30
1786;DHT22;890;48.158;11.540;2024-02-16T06:47:45;10.20;76.40
1786;DHT22;890;48.158;11.540;2024-02-16T06:50:11;10.20;76.40
1786;DHT22;890;48.158;11.540;2024-02-16T06:52:36;10.20;76.40
1786;DHT22;890;48.158;11.540;2024-02-16T06:55:02;10.30;76.40
1786;DHT22;890;48.158;11.540;2024-02-16T06:57:28;10.20;76.40
1786;DHT22;890;48.158;11.540;2024-02-16T06:59:54;10.20;76.50
1786;DHT22;890;48.158;11.540;2024-02-16T07:02:22;10.30;76.70
1786;DHT22;890;48.158;11.540;2024-02-16T07:04:48;10.30;76.70
1786;DHT22;890;48.158;11.540;2024-02-16T07:07:13;10.40;76.60
1786;DHT22;890;48.158;11.540;2024-02-16T07:09:39;10.30;76.30
1786;DHT22;890;48.158;11.540;2024-02-16T07:12:06;10.40;76.50
1786;DHT22;890;48.158;11.540;2024-02-16T07:14:32;10.30;76.50
1786;DHT22;890;48.158;11.540;2024-02-16T07:16:58;10.40;76.70
1786;DHT22;890;48.158;11.540;2024-02-16T07:19:23;10.40;76.50
1786;DHT22;890;48.158;11.540;2024-02-16T07:21:50;10.40;76.50
1786;DHT22;890;48.158;11.540;2024-02-16T07:24:16;10.40;76.60
1786;DHT22;890;48.158;11.540;2024-02-16T07:26:41;10.60;76.90
1786;DHT22;890;48.158;11.540;2024-02-16T07:29:07;10.50;76.80
1786;DHT22;890;48.158;11.540;2024-02-16T07:31:36;10.60;76.90
1786;DHT22;890;48.158;11.540;2024-02-16T07:34:02;10.90;77.00
1786;DHT22;890;48.158;11.540;2024-02-16T07:36:29;10.90;76.60
1786;DHT22;890;48.158;11.540;2024-02-16T07:38:55;11.10;76.60
1786;DHT22;890;48.158;11.540;2024-02-16T07:41:21;11.20;76.30
1786;DHT22;890;48.158;11.540;2024-02-16T07:43:46;11.40;76.30
1786;DHT22;890;48.158;11.540;2024-02-16T07:46:12;11.50;76.10
1786;DHT22;890;48.158;11.540;2024-02-16T07:48:38;11.60;75.80
1786;DHT22;890;48.158;11.540;2024-02-16T07:51:04;11.70;75.80
1786;DHT22;890;48.158;11.540;2024-02-16T07:53:30;11.80;75.80
1786;DHT22;890;48.158;11.540;2024-02-16T07:55:56;11.90;75.60
1786;DHT22;890;48.158;11.540;2024-02-16T07:58:23;11.90;75.40
1786;DHT22;890;48.158;11.540;2024-02-16T08:00:49;12.00;75.40
1786;DHT22;890;48.158;11.540;2024-02-16T08:03:16;12.10;75.30
1786;DHT22;890;48.158;11.540;2024-02-16T08:05:41;12.20;75.20
1786;DHT22;890;48.158;11.540;2024-02-16T08:08:07;12.20;75.10
1786;DHT22;890;48.158;11.540;2024-02-16T08:10:33;12.30;75.00
1786;DHT22;890;48.158;11.540;2024-02-16T08:12:59;12.40;74.90
1786;DHT22;890;48.158;11.540;2024-02-16T08:15:25;12.50;74.90
1786;DHT22;890;48.158;11.540;2024-02-16T08:17:51;12.60;74.80
1786;DHT22;890;48.158;11.540;2024-02-16T08:20:17;12.70;74.60
1786;DHT22;890;48.158;11.540;2024-02-16T08:22:43;12.70;74.40
1786;DHT22;890;48.158;11.540;2024-02-16T08:25:08;12.80;74.30
1786;DHT22;890;48.158;11.540;2024-02-16T08:27:34;12.90;74.40
1786;DHT22;890;48.158;11.540;2024-02-16T08:30:00;13.00;74.30
1786;DHT22;890;48.158;11.540;2024-02-16T08:32:28;13.10;74.10
1786;DHT22;890;48.158;11.540;2024-02-16T08:34:53;13.20;74.00
1786;DHT22;890;48.158;11.540;2024-02-16T08:37:21;13.30;74.00
1786;DHT22;890;48.158;11.540;2024-02-16T08:39:47;13.40;73.80
1786;DHT22;890;48.158;11.540;2024-02-16T08:42:13;13.50;73.90
1786;DHT22;890;48.158;11.540;2024-02-16T08:44:38;13.60;73.90
1786;DHT22;890;48.158;11.540;2024-02-16T08:47:06;13.80;74.10
1786;DHT22;890;48.158;11.540;2024-02-16T08:49:33;14.00;74.90
1786;DHT22;890;48.158;11.540;2024-02-16T08:51:58;14.20;74.20
1786;DHT22;890;48.158;11.540;2024-02-16T08:54:24;14.40;74.30
1786;DHT22;890;48.158;11.540;2024-02-16T08:56:51;14.60;75.20
1786;DHT22;890;48.158;11.540;2024-02-16T08:59:17;14.90;75.70
1786;DHT22;890;48.158;11.540;2024-02-16T09:01:43;15.10;74.90
1786;DHT22;890;48.158;11.540;2024-02-16T09:04:08;15.10;75.40
1786;DHT22;890;48.158;11.540;2024-02-16T09:06:34;15.50;78.20
1786;DHT22;890;48.158;11.540;2024-02-16T09:09:00;15.70;77.00
1786;DHT22;890;48.158;11.540;2024-02-16T09:11:26;15.90;76.20
1786;DHT22;890;48.158;11.540;2024-02-16T09:13:51;16.00;74.00
1786;DHT22;890;48.158;11.540;2024-02-16T09:16:17;15.90;73.20
1786;DHT22;890;48.158;11.540;2024-02-16T09:18:43;16.00;73.50
1786;DHT22;890;48.158;11.540;2024-02-16T09:21:08;16.10;73.90
1786;DHT22;890;48.158;11.540;2024-02-16T09:23:35;16.40;75.60
1786;DHT22;890;48.158;11.540;2024-02-16T09:26:01;16.70;75.60
1786;DHT22;890;48.158;11.540;2024-02-16T09:28:28;16.90;75.60
1786;DHT22;890;48.158;11.540;2024-02-16T09:30:57;17.20;76.40
1786;DHT22;890;48.158;11.540;2024-02-16T09:33:23;17.70;76.20
1786;DHT22;890;48.158;11.540;2024-02-16T09:35:49;18.10;77.00
1786;DHT22;890;48.158;11.540;2024-02-16T09:38:15;18.50;77.60
1786;DHT22;890;48.158;11.540;2024-02-16T09:40:41;18.80;74.70
1786;DHT22;890;48.158;11.540;2024-02-16T09:43:07;18.80;71.50
1786;DHT22;890;48.158;11.540;2024-02-16T09:45:33;18.70;69.10
1786;DHT22;890;48.158;11.540;2024-02-16T09:47:59;18.50;68.20
1786;DHT22;890;48.158;11.540;2024-02-16T09:50:27;18.60;69.40
1786;DHT22;890;48.158;11.540;2024-02-16T09:52:56;19.30;77.10
1786;DHT22;890;48.158;11.540;2024-02-16T09:55:22;20.60;84.40
1786;DHT22;890;48.158;11.540;2024-02-16T09:57:58;22.00;88.60
1786;DHT22;890;48.158;11.540;2024-02-16T10:00:24;23.40;88.10
1786;DHT22;890;48.158;11.540;2024-02-16T10:02:50;24.50;85.60
1786;DHT22;890;48.158;11.540;2024-02-16T10:05:21;25.20;80.80
1786;DHT22;890;48.158;11.540;2024-02-16T10:07:47;25.70;78.20
1786;DHT22;890;48.158;11.540;2024-02-16T10:10:28;26.20;76.90
1786;DHT22;890;48.158;11.540;2024-02-16T10:13:06;26.40;77.30
1786;DHT22;890;48.158;11.540;2024-02-16T10:15:34;26.80;76.80
1786;DHT22;890;48.158;11.540;2024-02-16T10:18:01;27.10;75.40
1786;DHT22;890;48.158;11.540;2024-02-16T10:20:27;27.50;76.10
1786;DHT22;890;48.158;11.540;2024-02-16T10:23:09;27.80;73.80
1786;DHT22;890;48.158;11.540;2024-02-16T10:25:36;28.10;74.30
1786;DHT22;890;48.158;11.540;2024-02-16T10:28:04;28.70;74.70
1786;DHT22;890;48.158;11.540;2024-02-16T10:30:35;29.10;73.60
1786;DHT22;890;48.158;11.540;2024-02-16T10:33:01;29.50;70.70
1786;DHT22;890;48.158;11.540;2024-02-16T10:35:28;30.00;67.90
1786;DHT22;890;48.158;11.540;2024-02-16T10:37:55;30.20;64.60
1786;DHT22;890;48.158;11.540;2024-02-16T10:40:23;30.50;63.40
1786;DHT22;890;48.158;11.540;2024-02-16T10:42:52;30.70;61.40
1786;DHT22;890;48.158;11.540;2024-02-16T10:45:18;30.50;58.30
1786;DHT22;890;48.158;11.540;2024-02-16T10:47:46;30.00;59.70
1786;DHT22;890;48.158;11.540;2024-02-16T10:50:12;29.60;57.00
1786;DHT22;890;48.158;11.540;2024-02-16T10:52:41;28.90;54.40
1786;DHT22;890;48.158;11.540;2024-02-16T10:55:08;28.30;53.10
1786;DHT22;890;48.158;11.540;2024-02-16T10:57:39;27.60;52.60
1786;DHT22;890;48.158;11.540;2024-02-16T11:00:11;26.70;52.20
1786;DHT22;890;48.158;11.540;2024-02-16T11:02:57;25.60;51.40
1786;DHT22;890;48.158;11.540;2024-02-16T11:05:35;25.10;51.30
1786;DHT22;890;48.158;11.540;2024-02-16T11:08:04;25.10;51.40
1786;DHT22;890;48.158;11.540;2024-02-16T11:10:31;25.10;53.40
1786;DHT22;890;48.158;11.540;2024-02-16T11:13:03;25.10;53.30
1786;DHT22;890;48.158;11.540;2024-02-16T11:15:33;25.30;53.10
1786;DHT22;890;48.158;11.540;2024-02-16T11:18:03;26.10;51.30
1786;DHT22;890;48.158;11.540;2024-02-16T11:20:37;26.80;49.40
1786;DHT22;890;48.158;11.540;2024-02-16T11:23:09;26.90;46.50
1786;DHT22;890;48.158;11.540;2024-02-16T11:25:36;27.00;45.40
1786;DHT22;890;48.158;11.540;2024-02-16T11:28:02;26.60;45.30
1786;DHT22;890;48.158;11.540;2024-02-16T11:30:34;26.10;46.40
1786;DHT22;890;48.158;11.540;2024-02-16T11:33:02;25.50;45.60
1786;DHT22;890;48.158;11.540;2024-02-16T11:35:28;25.40;45.50
1786;DHT22;890;48.158;11.540;2024-02-16T11:37:56;25.10;44.00
1786;DHT22;890;48.158;11.540;2024-02-16T11:40:22;24.70;43.90
1786;DHT22;890;48.158;11.540;2024-02-16T11:42:47;24.60;44.40
1786;DHT22;890;48.158;11.540;2024-02-16T11:45:13;24.30;44.50
1786;DHT22;890;48.158;11.540;2024-02-16T11:47:39;24.00;44.60
1786;DHT22;890;48.158;11.540;2024-02-16T11:50:09;23.90;44.90
1786;DHT22;890;48.158;11.540;2024-02-16T11:52:38;23.90;45.30
1786;DHT22;890;48.158;11.540;2024-02-16T11:55:08;23.70;46.50
1786;DHT22;890;48.158;11.540;2024-02-16T11:57:34;23.70;47.80
1786;DHT22;890;48.158;11.540;2024-02-16T12:00:01;24.00;48.90
1786;DHT22;890;48.158;11.540;2024-02-16T12:02:33;24.40;48.30
1786;DHT22;890;48.158;11.540;2024-02-16T12:04:59;24.90;46.90
1786;DHT22;890;48.158;11.540;2024-02-16T12:07:26;25.10;46.40
1786;DHT22;890;48.158;11.540;2024-02-16T12:10:00;25.10;46.10
1786;DHT22;890;48.158;11.540;2024-02-16T12:12:27;25.20;45.70
1786;DHT22;890;48.158;11.540;2024-02-16T12:14:54;25.30;45.80
1786;DHT22;890;48.158;11.540;2024-02-16T12:17:20;25.50;44.50
1786;DHT22;890;48.158;11.540;2024-02-16T12:19:46;25.40;42.70
1786;DHT22;890;48.158;11.540;2024-02-16T12:22:19;24.60;41.70
1786;DHT22;890;48.158;11.540;2024-02-16T12:24:49;23.70;41.80
1786;DHT22;890;48.158;11.540;2024-02-16T12:27:18;23.10;41.90
1786;DHT22;890;48.158;11.540;2024-02-16T12:29:44;22.50;41.90
1786;DHT22;890;48.158;11.540;2024-02-16T12:32:09;21.90;42.00
1786;DHT22;890;48.158;11.540;2024-02-16T12:34:36;21.50;42.10
1786;DHT22;890;48.158;11.540;2024-02-16T12:37:05;21.40;42.20
1786;DHT22;890;48.158;11.540;2024-02-16T12:39:33;21.20;42.30
1786;DHT22;890;48.158;11.540;2024-02-16T12:41:59;21.10;42.60
1786;DHT22;890;48.158;11.540;2024-02-16T12:44:25;21.00;42.80
1786;DHT22;890;48.158;11.540;2024-02-16T12:46:50;21.10;42.90
1786;DHT22;890;48.158;11.540;2024-02-16T12:49:16;21.00;43.30
1786;DHT22;890;48.158;11.540;2024-02-16T12:51:42;20.70;43.70
1786;DHT22;890;48.158;11.540;2024-02-16T12:54:07;20.50;43.80
1786;DHT22;890;48.158;11.540;2024-02-16T12:56:39;20.30;44.20
1786;DHT22;890;48.158;11.540;2024-02-16T12:59:05;20.30;44.50
1786;DHT22;890;48.158;11.540;2024-02-16T13:01:31;20.30;44.90
1786;DHT22;890;48.158;11.540;2024-02-16T13:03:56;20.20;44.60
1786;DHT22;890;48.158;11.540;2024-02-16T13:06:23;20.00;44.30
1786;DHT22;890;48.158;11.540;2024-02-16T13:08:49;19.80;44.30
1786;DHT22;890;48.158;11.540;2024-02-16T13:11:14;19.60;44.30
1786;DHT22;890;48.158;11.540;2024-02-16T13:13:40;19.50;44.50
1786;DHT22;890;48.158;11.540;2024-02-16T13:16:06;19.50;44.80
1786;DHT22;890;48.158;11.540;2024-02-16T13:18:32;19.50;45.40
1786;DHT22;890;48.158;11.540;2024-02-16T13:20:57;19.40;45.30
1786;DHT22;890;48.158;11.540;2024-02-16T13:23:23;19.30;45.50
1786;DHT22;890;48.158;11.540;2024-02-16T13:25:48;19.30;45.80
1786;DHT22;890;48.158;11.540;2024-02-16T13:28:14;19.20;45.90
1786;DHT22;890;48.158;11.540;2024-02-16T13:30:41;19.20;46.20
1786;DHT22;890;48.158;11.540;2024-02-16T13:33:07;19.10;46.20
1786;DHT22;890;48.158;11.540;2024-02-16T13:35:34;19.10;46.60
1786;DHT22;890;48.158;11.540;2024-02-16T13:38:01;19.10;46.60
1786;DHT22;890;48.158;11.540;2024-02-16T13:40:27;19.10;46.90
1786;DHT22;890;48.158;11.540;2024-02-16T13:42:53;19.00;47.00
1786;DHT22;890;48.158;11.540;2024-02-16T13:45:25;18.90;47.20
1786;DHT22;890;48.158;11.540;2024-02-16T13:47:51;18.80;47.40
1786;DHT22;890;48.158;11.540;2024-02-16T13:50:17;18.80;47.50
1786;DHT22;890;48.158;11.540;2024-02-16T13:52:42;18.70;47.60
1786;DHT22;890;48.158;11.540;2024-02-16T13:55:08;18.70;48.10
1786;DHT22;890;48.158;11.540;2024-02-16T13:57:34;18.60;48.10
1786;DHT22;890;48.158;11.540;2024-02-16T14:00:01;18.60;48.10
1786;DHT22;890;48.158;11.540;2024-02-16T14:02:26;18.50;48.30
1786;DHT22;890;48.158;11.540;2024-02-16T14:04:52;18.50;48.50
1786;DHT22;890;48.158;11.540;2024-02-16T14:07:18;18.40;48.70
1786;DHT22;890;48.158;11.540;2024-02-16T14:09:43;18.30;48.70
1786;DHT22;890;48.158;11.540;2024-02-16T14:12:09;18.20;48.90
1786;DHT22;890;48.158;11.540;2024-02-16T14:14:35;18.20;49.00
1786;DHT22;890;48.158;11.540;2024-02-16T14:17:00;18.10;49.10
1786;DHT22;890;48.158;11.540;2024-02-16T14:19:26;18.10;49.10
1786;DHT22;890;48.158;11.540;2024-02-16T14:21:52;18.10;49.10
1786;DHT22;890;48.158;11.540;2024-02-16T14:24:17;21.40;51.90
1786;DHT22;890;48.158;11.540;2024-02-16T14:26:43;18.10;49.30
1786;DHT22;890;48.158;11.540;2024-02-16T14:29:09;18.20;49.40
1786;DHT22;890;48.158;11.540;2024-02-16T14:31:36;18.10;49.50
1786;DHT22;890;48.158;11.540;2024-02-16T14:34:01;18.10;49.70
1786;DHT22;890;48.158;11.540;2024-02-16T14:36:27;18.00;49.70
1786;DHT22;890;48.158;11.540;2024-02-16T14:38:52;18.10;49.90
1786;DHT22;890;48.158;11.540;2024-02-16T14:41:18;18.20;50.00
1786;DHT22;890;48.158;11.540;2024-02-16T14:43:44;18.30;50.00
1786;DHT22;890;48.158;11.540;2024-02-16T14:46:10;18.30;50.00
1786;DHT22;890;48.158;11.540;2024-02-16T14:48:36;18.30;50.20
1786;DHT22;890;48.158;11.540;2024-02-16T14:51:02;18.30;50.10
1786;DHT22;890;48.158;11.540;2024-02-16T14:53:28;18.20;50.30
1786;DHT22;890;48.158;11.540;2024-02-16T14:55:58;18.20;50.40
1786;DHT22;890;48.158;11.540;2024-02-16T14:58:24;18.20;50.40
1786;DHT22;890;48.158;11.540;2024-02-16T15:00:50;18.20;50.50
1786;DHT22;890;48.158;11.540;2024-02-16T15:03:16;18.00;50.60
1786;DHT22;890;48.158;11.540;2024-02-16T15:05:44;17.90;50.70
1786;DHT22;890;48.158;11.540;2024-02-16T15:08:10;17.90;51.00
1786;DHT22;890;48.158;11.540;2024-02-16T15:10:36;17.80;51.10
1786;DHT22;890;48.158;11.540;2024-02-16T15:13:01;17.70;51.20
1786;DHT22;890;48.158;11.540;2024-02-16T15:15:27;17.70;51.30
1786;DHT22;890;48.158;11.540;2024-02-16T15:17:53;17.60;51.20
1786;DHT22;890;48.158;11.540;2024-02-16T15:20:18;17.60;51.30
1786;DHT22;890;48.158;11.540;2024-02-16T15:22:47;17.50;51.40
1786;DHT22;890;48.158;11.540;2024-02-16T15:25:13;17.50;51.50
1786;DHT22;890;48.158;11.540;2024-02-16T15:27:39;17.40;51.60
1786;DHT22;890;48.158;11.540;2024-02-16T15:30:05;17.40;51.70
1786;DHT22;890;48.158;11.540;2024-02-16T15:32:30;17.30;51.60
1786;DHT22;890;48.158;11.540;2024-02-16T15:34:57;17.30;51.70
1786;DHT22;890;48.158;11.540;2024-02-16T15:37:22;17.20;51.80
1786;DHT22;890;48.158;11.540;2024-02-16T15:39:48;17.20;51.90
1786;DHT22;890;48.158;11.540;2024-02-16T15:42:17;17.20;52.00
1786;DHT22;890;48.158;11.540;2024-02-16T15:44:43;17.10;52.00
1786;DHT22;890;48.158;11.540;2024-02-16T15:47:09;17.00;52.10
1786;DHT22;890;48.158;11.540;2024-02-16T15:49:37;16.90;52.20
1786;DHT22;890;48.158;11.540;2024-02-16T15:52:03;16.90;52.40
1786;DHT22;890;48.158;11.540;2024-02-16T15:54:29;16.80;52.50
1786;DHT22;890;48.158;11.540;2024-02-16T15:56:54;16.70;52.40
1786;DHT22;890;48.158;11.540;2024-02-16T15:59:20;16.70;52.50
1786;DHT22;890;48.158;11.540;2024-02-16T16:01:46;16.60;52.50